Time;durP1;ratioP1;P1;durP2;ratioP2;P2;SDS_P1;SDS_P2;PMS_P1;PMS_P2;Temp;Humidity;BMP_temperature;BMP_pressure;BME280_temperature;BME280_humidity;BME280_pressure;Samples;Min_cycle;Max_cycle;Signal;HPM_P1;HPM_P2
2021/12/13 00:00:54;;;;;;;9.63;9.33;;;3.50;99.90;;;;;;5139211;28;20233;-81
2021/12/13 00:03:29;;;;;;;9.90;9.60;;;3.50;99.90;;;;;;5142183;27;20315;-81
2021/12/13 00:06:02;;;;;;;9.70;9.40;;;3.50;99.90;;;;;;5162607;27;20208;-81
2021/12/13 00:08:37;;;;;;;9.97;9.67;;;3.50;99.90;;;;;;5163127;27;20223;-81
2021/12/13 00:11:16;;;;;;;9.60;9.30;;;3.50;99.90;;;;;;5163790;27;20212;-81
2021/12/13 00:13:47;;;;;;;9.97;9.67;;;3.60;99.90;;;;;;5163719;27;20220;-79
2021/12/13 00:16:16;;;;;;;9.90;9.60;;;3.60;99.90;;;;;;5162856;27;20216;-81
2021/12/13 00:18:48;;;;;;;9.60;9.30;;;3.60;99.90;;;;;;5162228;27;20208;-81
2021/12/13 00:21:24;;;;;;;9.63;9.33;;;3.60;99.90;;;;;;5156858;27;20208;-81
2021/12/13 00:24:02;;;;;;;9.60;9.30;;;3.60;99.90;;;;;;5163639;27;20199;-81
2021/12/13 00:26:42;;;;;;;9.40;9.10;;;3.60;99.90;;;;;;5162152;27;20283;-80
2021/12/13 00:29:11;;;;;;;9.93;9.63;;;3.60;99.90;;;;;;5162250;27;20215;-81
2021/12/13 00:31:49;;;;;;;9.80;9.50;;;3.60;99.90;;;;;;5161329;27;20238;-80
2021/12/13 00:34:36;;;;;;;9.70;9.40;;;3.60;99.90;;;;;;5161144;27;20220;-81
2021/12/13 00:37:13;;;;;;;9.70;9.40;;;3.60;99.90;;;;;;5158820;27;20232;-81
2021/12/13 00:39:51;;;;;;;9.77;9.47;;;3.60;99.90;;;;;;5157438;27;20246;-81
2021/12/13 00:42:30;;;;;;;9.80;9.50;;;3.70;99.90;;;;;;5138005;27;20262;-81
2021/12/13 00:45:03;;;;;;;9.80;9.50;;;3.70;99.90;;;;;;5133980;28;20232;-81
2021/12/13 00:47:38;;;;;;;9.70;9.40;;;3.70;99.90;;;;;;5139667;28;20247;-82
2021/12/13 00:50:16;;;;;;;9.77;9.47;;;3.70;99.90;;;;;;5141424;27;20208;-82
2021/12/13 00:52:45;;;;;;;9.90;9.60;;;3.70;99.90;;;;;;5141102;27;20224;-82
2021/12/13 00:55:26;;;;;;;9.73;9.43;;;3.70;99.90;;;;;;5140673;27;20292;-82
2021/12/13 00:58:10;;;;;;;9.67;9.37;;;3.80;99.90;;;;;;5140027;27;20266;-81
2021/12/13 01:00:48;;;;;;;9.77;9.47;;;3.90;99.90;;;;;;5128604;28;20302;-81
2021/12/13 01:03:20;;;;;;;9.90;9.60;;;3.90;99.90;;;;;;5129864;27;20253;-81
2021/12/13 01:06:31;;;;;;;9.77;9.47;;;3.90;99.90;;;;;;5134760;27;20259;-81
2021/12/13 01:09:54;;;;;;;9.70;9.40;;;3.90;99.90;;;;;;5180342;22;20673;-79
2021/12/13 01:12:24;;;;;;;9.73;9.43;;;3.90;99.90;;;;;;5165720;27;20226;-79
2021/12/13 01:15:01;;;;;;;9.63;9.33;;;3.90;99.90;;;;;;5178281;27;20317;-79
2021/12/13 01:17:45;;;;;;;9.70;9.40;;;3.90;99.90;;;;;;5155830;27;20326;-80
2021/12/13 01:20:26;;;;;;;9.77;9.47;;;3.90;99.90;;;;;;5138695;27;20263;-79
2021/12/13 01:22:59;;;;;;;9.80;9.50;;;3.90;99.90;;;;;;5155335;27;20230;-80
2021/12/13 01:25:42;;;;;;;9.70;9.40;;;3.90;99.90;;;;;;5154813;27;20227;-79
2021/12/13 01:28:28;;;;;;;9.50;9.20;;;3.90;99.90;;;;;;5160487;27;20226;-79
2021/12/13 01:31:02;;;;;;;9.77;9.47;;;3.90;99.90;;;;;;5166351;27;20265;-79
2021/12/13 01:33:33;;;;;;;9.90;9.60;;;3.90;99.90;;;;;;5161409;27;20224;-79
2021/12/13 01:36:06;;;;;;;9.80;9.50;;;4.00;99.90;;;;;;5172625;27;20234;-80
2021/12/13 01:38:40;;;;;;;9.83;9.53;;;4.00;99.90;;;;;;5163689;27;20288;-80
2021/12/13 01:41:12;;;;;;;9.83;9.53;;;4.00;99.90;;;;;;5164320;27;20227;-80
2021/12/13 01:43:44;;;;;;;9.90;9.60;;;4.10;99.90;;;;;;5165908;27;20280;-80
2021/12/13 01:46:14;;;;;;;9.80;9.50;;;4.10;99.90;;;;;;5144519;27;20285;-78
2021/12/13 01:48:52;;;;;;;9.80;9.50;;;4.10;99.90;;;;;;5144331;27;20297;-78
2021/12/13 01:51:27;;;;;;;9.67;9.37;;;4.20;99.90;;;;;;5149275;27;20236;-78
2021/12/13 01:54:00;;;;;;;9.87;9.57;;;4.20;99.90;;;;;;5158230;27;20211;-77
2021/12/13 01:56:43;;;;;;;9.67;9.37;;;4.20;99.90;;;;;;5158557;27;20232;-78
2021/12/13 01:59:42;;;;;;;9.90;9.60;;;4.30;99.90;;;;;;5150740;27;20243;-79
2021/12/13 02:02:26;;;;;;;9.80;9.50;;;4.30;99.90;;;;;;5144741;27;20236;-79
2021/12/13 02:05:06;;;;;;;9.60;9.30;;;4.20;99.90;;;;;;5143106;27;20220;-79
2021/12/13 02:07:43;;;;;;;9.77;9.47;;;4.20;99.90;;;;;;5142699;27;20258;-79
2021/12/13 02:10:25;;;;;;;9.70;9.40;;;4.20;99.90;;;;;;5153450;27;20285;-79
2021/12/13 02:12:58;;;;;;;9.90;9.60;;;4.10;99.90;;;;;;5157952;27;20231;-77
2021/12/13 02:18:22;;;;;;;9.67;9.37;;;4.10;99.90;;;;;;5165530;27;20231;-77
2021/12/13 02:21:02;;;;;;;9.73;9.43;;;4.10;99.90;;;;;;5169017;27;20236;-78
2021/12/13 02:23:33;;;;;;;9.73;9.43;;;4.10;99.90;;;;;;5164236;27;20639;-80
2021/12/13 02:26:01;;;;;;;9.73;9.43;;;4.10;99.90;;;;;;5164228;27;20284;-78
2021/12/13 02:28:35;;;;;;;9.80;9.50;;;4.10;99.90;;;;;;5162918;27;20276;-79
2021/12/13 02:31:07;;;;;;;9.97;9.67;;;4.10;99.90;;;;;;5162263;27;20300;-78
2021/12/13 02:33:41;;;;;;;9.83;9.53;;;4.10;99.90;;;;;;5162444;27;20227;-79
2021/12/13 02:36:13;;;;;;;9.80;9.50;;;4.10;99.90;;;;;;5169055;27;20232;-78
2021/12/13 02:38:47;;;;;;;9.70;9.40;;;4.10;99.90;;;;;;5163849;27;20235;-79
2021/12/13 02:41:17;;;;;;;9.77;9.47;;;4.10;99.90;;;;;;5163750;27;20259;-79
2021/12/13 02:43:52;;;;;;;9.63;9.33;;;4.20;99.90;;;;;;5163513;27;20249;-79
2021/12/13 02:46:21;;;;;;;10.10;9.80;;;4.20;99.90;;;;;;5162535;27;20227;-79
2021/12/13 02:48:54;;;;;;;9.93;9.63;;;4.20;99.90;;;;;;5162473;27;20288;-79
2021/12/13 02:51:27;;;;;;;9.87;9.57;;;4.30;99.90;;;;;;5162222;27;20223;-78
2021/12/13 02:54:03;;;;;;;9.90;9.60;;;4.30;99.90;;;;;;5160858;27;20238;-79
2021/12/13 02:56:47;;;;;;;9.90;9.60;;;4.30;99.90;;;;;;5162249;27;20223;-78
2021/12/13 02:59:16;;;;;;;10.00;9.70;;;4.40;99.90;;;;;;5161573;27;20231;-78
2021/12/13 03:01:49;;;;;;;9.83;9.53;;;4.40;99.90;;;;;;5161751;27;20226;-78
2021/12/13 03:04:21;;;;;;;9.87;9.57;;;4.40;99.90;;;;;;5161524;27;20231;-78
2021/12/13 03:06:52;;;;;;;9.80;9.50;;;4.50;99.90;;;;;;5161738;27;20228;-79
2021/12/13 03:09:27;;;;;;;9.90;9.60;;;4.50;99.90;;;;;;5172449;27;20256;-78
2021/12/13 03:11:57;;;;;;;9.87;9.57;;;4.50;99.90;;;;;;5163092;27;20272;-77
2021/12/13 03:14:29;;;;;;;9.77;9.47;;;4.60;99.90;;;;;;5162019;27;20249;-79
2021/12/13 03:17:02;;;;;;;9.90;9.60;;;4.60;99.90;;;;;;5162374;27;20223;-79
2021/12/13 03:19:48;;;;;;;9.80;9.50;;;4.60;99.90;;;;;;5162127;27;20702;-79
2021/12/13 03:23:19;;;;;;;9.77;9.47;;;4.70;99.90;;;;;;5162310;27;20223;-78
2021/12/13 03:26:25;;;;;;;9.70;9.40;;;4.70;99.90;;;;;;5054191;28;20285;-78
2021/12/13 03:29:07;;;;;;;9.80;9.50;;;4.70;99.90;;;;;;5160853;27;20266;-78
2021/12/13 03:31:40;;;;;;;9.80;9.50;;;4.80;99.90;;;;;;5161743;27;20227;-79
2021/12/13 03:34:13;;;;;;;9.70;9.40;;;4.80;99.90;;;;;;5160798;27;20288;-79
2021/12/13 03:36:54;;;;;;;9.80;9.50;;;4.80;99.90;;;;;;5165065;27;20216;-78
2021/12/13 03:39:27;;;;;;;9.87;9.57;;;4.70;99.90;;;;;;5165532;27;20268;-78
2021/12/13 03:41:59;;;;;;;9.80;9.50;;;4.70;99.90;;;;;;5165629;27;20227;-79
2021/12/13 03:44:36;;;;;;;10.10;9.80;;;4.70;99.90;;;;;;5165836;27;20220;-77
2021/12/13 03:47:11;;;;;;;10.00;9.70;;;4.70;99.90;;;;;;5164834;27;20245;-79
2021/12/13 03:49:50;;;;;;;9.83;9.53;;;4.70;99.90;;;;;;5162292;27;20229;-79
2021/12/13 03:52:24;;;;;;;10.37;10.00;;;4.70;99.90;;;;;;5161588;27;20231;-79
2021/12/13 03:54:56;;;;;;;10.57;10.17;;;4.70;99.90;;;;;;5161844;27;20227;-78
2021/12/13 03:57:26;;;;;;;9.87;9.57;;;4.70;99.90;;;;;;5161045;27;20231;-79
2021/12/13 03:59:54;;;;;;;9.93;9.63;;;4.80;99.90;;;;;;5167488;27;20265;-79
2021/12/13 04:02:28;;;;;;;10.27;9.97;;;4.80;99.90;;;;;;5160525;27;20232;-79
2021/12/13 04:04:59;;;;;;;10.60;10.20;;;4.80;99.90;;;;;;5159300;27;20231;-79
2021/12/13 04:07:32;;;;;;;10.70;10.30;;;4.80;99.90;;;;;;5158841;27;20284;-79
2021/12/13 04:10:07;;;;;;;9.93;9.63;;;4.90;99.90;;;;;;5159388;27;20284;-79
2021/12/13 04:12:42;;;;;;;9.90;9.60;;;4.90;99.90;;;;;;5160469;27;20280;-78
2021/12/13 04:15:20;;;;;;;9.90;9.60;;;4.80;99.90;;;;;;5160017;27;20254;-79
2021/12/13 04:18:00;;;;;;;10.07;9.77;;;4.90;99.90;;;;;;5161121;27;20231;-78
2021/12/13 04:20:36;;;;;;;10.10;9.80;;;4.90;99.90;;;;;;5166308;27;20219;-81
2021/12/13 04:23:19;;;;;;;10.43;10.07;;;4.90;99.90;;;;;;5165121;27;20223;-79
2021/12/13 04:25:50;;;;;;;10.30;10.00;;;4.90;99.90;;;;;;5160985;27;20268;-78
2021/12/13 04:28:23;;;;;;;10.07;9.77;;;5.00;99.90;;;;;;5160101;27;20359;-78
2021/12/13 04:30:58;;;;;;;10.27;9.97;;;5.00;99.90;;;;;;5159631;27;20231;-79
2021/12/13 04:33:30;;;;;;;10.00;9.70;;;5.00;99.90;;;;;;5160675;27;20223;-79
2021/12/13 04:36:02;;;;;;;10.00;9.70;;;5.00;99.90;;;;;;5160588;27;20249;-79
2021/12/13 04:38:39;;;;;;;10.07;9.77;;;5.00;99.90;;;;;;5159756;27;20319;-79
2021/12/13 04:41:08;;;;;;;9.93;9.63;;;5.10;99.90;;;;;;5160511;27;20245;-79
2021/12/13 04:43:38;;;;;;;10.07;9.77;;;5.10;99.90;;;;;;5159940;27;20270;-78
2021/12/13 04:46:07;;;;;;;10.20;9.90;;;5.10;99.90;;;;;;5159590;27;20249;-79
2021/12/13 04:48:36;;;;;;;10.30;10.00;;;5.20;99.90;;;;;;5160934;27;20288;-78
2021/12/13 04:51:08;;;;;;;9.93;9.63;;;5.10;99.90;;;;;;5168494;27;20228;-79
2021/12/13 04:53:44;;;;;;;9.90;9.60;;;5.10;99.90;;;;;;5163172;27;20227;-79
2021/12/13 04:56:17;;;;;;;10.13;9.83;;;5.10;99.90;;;;;;5162068;27;20302;-79
2021/12/13 04:58:51;;;;;;;10.13;9.83;;;5.10;99.90;;;;;;5160439;27;20312;-78
2021/12/13 05:01:21;;;;;;;10.30;10.00;;;5.00;99.90;;;;;;5160176;27;20319;-78
2021/12/13 05:03:54;;;;;;;9.93;9.63;;;5.00;99.90;;;;;;5159249;27;20260;-79
2021/12/13 05:06:26;;;;;;;10.13;9.83;;;5.00;99.90;;;;;;5159497;27;20215;-78
2021/12/13 05:08:58;;;;;;;10.30;10.00;;;5.00;99.90;;;;;;5158873;27;20239;-79
2021/12/13 05:11:30;;;;;;;10.20;9.90;;;5.00;99.90;;;;;;5159702;27;20231;-78
2021/12/13 05:14:01;;;;;;;10.30;10.00;;;5.00;99.90;;;;;;5159406;27;20280;-77
2021/12/13 05:16:39;;;;;;;10.70;10.30;;;5.00;99.90;;;;;;5158362;27;20300;-78
2021/12/13 05:19:09;;;;;;;10.00;9.70;;;5.00;99.90;;;;;;5159224;27;20223;-79
2021/12/13 05:21:42;;;;;;;10.27;9.97;;;5.00;99.90;;;;;;5161256;27;20280;-78
2021/12/13 05:24:16;;;;;;;10.13;9.83;;;5.00;99.90;;;;;;5159039;27;20280;-79
2021/12/13 05:26:52;;;;;;;10.20;9.90;;;5.00;99.90;;;;;;5159177;27;20234;-79
2021/12/13 05:29:31;;;;;;;10.13;9.83;;;5.00;99.90;;;;;;5159152;27;20235;-78
2021/12/13 05:32:03;;;;;;;10.20;9.90;;;5.00;99.90;;;;;;5158338;27;20261;-78
2021/12/13 05:34:37;;;;;;;10.40;10.10;;;5.00;99.90;;;;;;5159272;27;20223;-79
2021/12/13 05:37:07;;;;;;;10.10;9.80;;;5.00;99.90;;;;;;5158681;27;20211;-78
2021/12/13 05:39:37;;;;;;;10.30;10.00;;;4.90;99.90;;;;;;5158740;27;20240;-79
2021/12/13 05:42:09;;;;;;;10.23;9.93;;;4.90;99.90;;;;;;5158796;27;20285;-79
2021/12/13 05:44:44;;;;;;;10.10;9.80;;;5.00;99.90;;;;;;5166563;27;20775;-78
2021/12/13 05:47:27;;;;;;;10.20;9.90;;;5.00;99.90;;;;;;5157804;27;20231;-78
2021/12/13 05:49:55;;;;;;;10.10;9.80;;;5.00;99.90;;;;;;5159154;27;20250;-79
2021/12/13 05:52:39;;;;;;;10.00;9.70;;;5.00;99.90;;;;;;5159064;27;20228;-79
2021/12/13 05:55:12;;;;;;;10.00;9.70;;;5.00;99.90;;;;;;5158958;27;20268;-79
2021/12/13 05:57:46;;;;;;;9.97;9.67;;;5.00;99.90;;;;;;5157696;27;20242;-80
2021/12/13 06:00:28;;;;;;;10.77;10.38;;;5.00;99.90;;;;;;5151143;27;20470;-79
2021/12/13 06:03:06;;;;;;;10.73;10.33;;;5.00;99.90;;;;;;5139849;27;20261;-81
2021/12/13 06:05:38;;;;;;;10.00;9.70;;;5.10;99.90;;;;;;5138497;27;20228;-80
2021/12/13 06:08:10;;;;;;;10.10;9.80;;;5.20;99.90;;;;;;5138978;27;20267;-81
2021/12/13 06:10:49;;;;;;;10.00;9.70;;;5.20;99.90;;;;;;5136991;27;20236;-80
2021/12/13 06:13:36;;;;;;;10.40;10.03;;;5.20;99.90;;;;;;5155478;27;20273;-81
2021/12/13 06:16:05;;;;;;;10.00;9.70;;;5.30;99.90;;;;;;5159460;27;20755;-81
2021/12/13 06:18:43;;;;;;;9.90;9.60;;;5.30;99.90;;;;;;5159174;27;20269;-81
2021/12/13 06:21:27;;;;;;;10.10;9.80;;;5.30;99.90;;;;;;5158795;27;20314;-81
2021/12/13 06:23:57;;;;;;;9.93;9.63;;;5.30;99.90;;;;;;5157853;27;20241;-81
2021/12/13 06:26:31;;;;;;;10.10;9.80;;;5.30;99.90;;;;;;5159028;27;20224;-82
2021/12/13 06:29:03;;;;;;;10.07;9.77;;;5.40;99.90;;;;;;5173406;27;20260;-79
2021/12/13 06:31:41;;;;;;;10.55;10.25;;;5.40;99.90;;;;;;5168712;27;20383;-80
2021/12/13 06:34:12;;;;;;;10.27;9.97;;;5.50;99.90;;;;;;5163314;27;20240;-81
2021/12/13 06:36:44;;;;;;;10.23;9.93;;;5.50;99.90;;;;;;5163089;27;20237;-82
2021/12/13 06:39:19;;;;;;;10.23;9.93;;;5.50;99.90;;;;;;5170697;27;20231;-82
2021/12/13 06:41:51;;;;;;;9.90;9.60;;;5.50;99.90;;;;;;5163536;27;20237;-82
2021/12/13 06:44:24;;;;;;;10.20;9.90;;;5.40;99.90;;;;;;5162950;27;20255;-81
2021/12/13 06:47:01;;;;;;;10.30;10.00;;;5.40;99.90;;;;;;5163697;27;20241;-82
2021/12/13 06:49:38;;;;;;;10.10;9.80;;;5.40;99.90;;;;;;5162883;27;20291;-81
2021/12/13 06:52:10;;;;;;;10.30;10.00;;;5.30;99.90;;;;;;5162734;27;20231;-80
2021/12/13 06:54:41;;;;;;;10.20;9.90;;;5.20;99.90;;;;;;5161457;27;20273;-80
2021/12/13 06:57:14;;;;;;;10.53;10.13;;;5.10;99.90;;;;;;5161463;27;20219;-81
2021/12/13 06:59:52;;;;;;;10.40;10.10;;;5.10;99.90;;;;;;5161461;27;20232;-80
2021/12/13 07:02:24;;;;;;;10.37;10.07;;;5.00;99.90;;;;;;5162551;27;20310;-80
2021/12/13 07:05:05;;;;;;;10.73;10.33;;;5.00;99.90;;;;;;5162013;27;20219;-78
2021/12/13 07:07:38;;;;;;;10.53;10.17;;;4.90;99.90;;;;;;5160600;27;20311;-80
2021/12/13 07:10:21;;;;;;;10.70;10.30;;;5.00;99.90;;;;;;5163716;27;20288;-80
2021/12/13 07:12:53;;;;;;;10.70;10.30;;;4.90;99.90;;;;;;5168963;27;20227;-80
2021/12/13 07:15:34;;;;;;;10.70;10.30;;;5.00;99.90;;;;;;5170047;27;20219;-79
2021/12/13 07:18:13;;;;;;;10.40;10.10;;;5.00;99.90;;;;;;5167208;27;20231;-77
2021/12/13 07:20:47;;;;;;;10.43;10.13;;;5.00;99.90;;;;;;5164832;27;20230;-81
2021/12/13 07:23:16;;;;;;;10.33;10.03;;;4.90;99.90;;;;;;5165615;27;20231;-79
2021/12/13 07:25:46;;;;;;;11.10;10.70;;;4.90;99.90;;;;;;5162322;27;20239;-77
2021/12/13 07:28:31;;;;;;;10.80;10.40;;;4.90;99.90;;;;;;5160842;27;20261;-79
2021/12/13 07:31:00;;;;;;;10.20;9.90;;;4.90;99.90;;;;;;5165490;27;20257;-78
2021/12/13 07:33:40;;;;;;;10.30;10.00;;;4.90;99.90;;;;;;5174490;27;20223;-78
2021/12/13 07:36:24;;;;;;;10.27;9.97;;;4.90;99.90;;;;;;5177309;27;20208;-76
2021/12/13 07:38:58;;;;;;;10.63;10.23;;;4.90;99.90;;;;;;5163381;27;20284;-80
2021/12/13 07:41:28;;;;;;;10.37;10.07;;;4.90;99.90;;;;;;5164283;27;20231;-79
2021/12/13 07:43:55;;;;;;;10.60;10.20;;;4.90;99.90;;;;;;5161875;27;20220;-80
2021/12/13 07:46:31;;;;;;;10.60;10.20;;;4.90;99.90;;;;;;5161935;27;20276;-80
2021/12/13 07:49:05;;;;;;;10.87;10.47;;;4.90;99.90;;;;;;5160727;27;20242;-80
2021/12/13 07:51:36;;;;;;;10.30;10.00;;;4.90;99.90;;;;;;5161722;27;20219;-80
2021/12/13 07:54:07;;;;;;;10.30;10.00;;;4.90;99.90;;;;;;5161685;27;20216;-80
2021/12/13 07:56:53;;;;;;;10.40;10.07;;;5.00;99.90;;;;;;5160754;27;20289;-80
2021/12/13 07:59:31;;;;;;;10.30;10.00;;;5.00;99.90;;;;;;5160526;27;20265;-80
2021/12/13 08:02:07;;;;;;;10.27;9.97;;;5.10;99.90;;;;;;5201306;22;20233;-84
2021/12/13 08:04:50;;;;;;;10.27;9.97;;;5.20;99.90;;;;;;5108218;28;20307;-85
2021/12/13 08:07:28;;;;;;;10.70;10.30;;;5.20;99.90;;;;;;5099774;28;20209;-85
2021/12/13 08:10:00;;;;;;;10.70;10.30;;;5.30;99.90;;;;;;5106754;28;20252;-85
2021/12/13 08:12:31;;;;;;;10.30;10.00;;;5.30;99.90;;;;;;5106714;28;20252;-84
2021/12/13 08:15:15;;;;;;;10.30;10.00;;;5.40;99.90;;;;;;5109085;28;20230;-86
2021/12/13 08:17:50;;;;;;;10.17;9.87;;;5.40;99.90;;;;;;5105924;28;20273;-86
2021/12/13 08:20:26;;;;;;;10.30;10.00;;;5.50;99.90;;;;;;5107961;28;20236;-85
2021/12/13 08:22:55;;;;;;;9.97;9.67;;;5.50;99.90;;;;;;5107193;28;20229;-86
2021/12/13 08:25:27;;;;;;;10.10;9.80;;;5.60;99.90;;;;;;5116592;27;20272;-87
2021/12/13 08:27:59;;;;;;;9.90;9.60;;;5.60;99.90;;;;;;5119296;27;20240;-86
2021/12/13 08:30:33;;;;;;;10.10;9.80;;;5.60;99.90;;;;;;5108633;28;20261;-86
2021/12/13 08:33:09;;;;;;;9.90;9.60;;;5.70;99.90;;;;;;5107490;28;20237;-86
2021/12/13 08:35:57;;;;;;;9.73;9.43;;;5.70;99.90;;;;;;5107282;28;20270;-86
2021/12/13 08:38:39;;;;;;;9.77;9.47;;;5.70;99.90;;;;;;5106418;28;20240;-86
2021/12/13 08:41:25;;;;;;;9.93;9.63;;;5.80;99.90;;;;;;5095953;28;20233;-81
2021/12/13 08:43:57;;;;;;;9.83;9.53;;;5.80;99.90;;;;;;5100676;28;20229;-80
2021/12/13 08:46:40;;;;;;;9.70;9.40;;;5.80;99.90;;;;;;5099704;28;20221;-81
2021/12/13 08:49:37;;;;;;;9.87;9.57;;;5.90;99.90;;;;;;5102493;28;20252;-82
2021/12/13 08:52:22;;;;;;;9.40;9.10;;;5.80;99.90;;;;;;5099986;28;20241;-82
2021/12/13 08:55:00;;;;;;;9.40;9.10;;;5.80;99.90;;;;;;5101723;28;20237;-87
2021/12/13 08:57:42;;;;;;;9.80;9.50;;;5.90;99.90;;;;;;5100604;28;20229;-87
2021/12/13 09:00:50;;;;;;;9.70;9.40;;;5.90;99.90;;;;;;5118085;28;20201;-87
2021/12/13 09:03:36;;;;;;;9.37;9.07;;;5.80;99.90;;;;;;5112678;27;20218;-87
2021/12/13 09:06:21;;;;;;;9.60;9.30;;;5.80;99.90;;;;;;5119940;27;20240;-88
2021/12/13 09:08:55;;;;;;;9.50;9.20;;;5.90;99.90;;;;;;5119834;27;20228;-88
2021/12/13 09:11:30;;;;;;;9.70;9.40;;;6.10;99.90;;;;;;5119652;27;20225;-87
2021/12/13 09:14:06;;;;;;;9.50;9.20;;;6.10;99.90;;;;;;5119868;27;20212;-89
2021/12/13 09:16:55;;;;;;;9.90;9.60;;;6.20;99.90;;;;;;5119585;27;20273;-88
2021/12/13 09:19:27;;;;;;;10.20;9.90;;;6.30;99.90;;;;;;5117562;28;20399;-87
2021/12/13 09:22:02;;;;;;;10.00;9.70;;;6.40;99.90;;;;;;5117874;27;20217;-86
2021/12/13 09:24:40;;;;;;;9.87;9.57;;;6.50;99.90;;;;;;5111030;28;20229;-86
2021/12/13 09:27:25;;;;;;;9.60;9.30;;;6.70;99.90;;;;;;5112455;28;20225;-86
2021/12/13 09:30:13;;;;;;;9.30;9.00;;;6.80;99.90;;;;;;5111266;28;20226;-86
2021/12/13 09:32:45;;;;;;;9.60;9.30;;;6.80;99.90;;;;;;5110974;28;20233;-86
2021/12/13 09:35:27;;;;;;;9.30;9.00;;;6.90;99.90;;;;;;5108260;28;20225;-86
2021/12/13 09:37:57;;;;;;;9.33;9.03;;;6.90;99.90;;;;;;5108663;28;20228;-86
2021/12/13 09:40:37;;;;;;;9.80;9.50;;;6.90;99.90;;;;;;5108311;28;20241;-86
2021/12/13 09:43:05;;;;;;;10.20;9.90;;;7.00;99.90;;;;;;5109502;28;20234;-86
2021/12/13 09:45:40;;;;;;;9.83;9.53;;;6.90;99.90;;;;;;5108324;28;20229;-86
2021/12/13 09:48:20;;;;;;;9.60;9.30;;;6.90;99.90;;;;;;5107284;28;20231;-86
2021/12/13 09:50:53;;;;;;;9.80;9.50;;;6.90;99.90;;;;;;5107258;28;20225;-86
2021/12/13 09:53:31;;;;;;;10.00;9.70;;;6.90;99.90;;;;;;5105714;28;20226;-86
2021/12/13 09:56:04;;;;;;;9.57;9.27;;;6.90;99.90;;;;;;5112545;28;20256;-87
2021/12/13 09:58:43;;;;;;;9.80;9.50;;;6.90;99.90;;;;;;5112301;28;20232;-86
2021/12/13 10:01:15;;;;;;;9.90;9.60;;;6.80;99.90;;;;;;5114218;28;20229;-86
2021/12/13 10:03:55;;;;;;;9.73;9.43;;;6.80;99.90;;;;;;5117963;28;20334;-86
2021/12/13 10:06:28;;;;;;;10.10;9.80;;;6.80;99.90;;;;;;5120043;27;20308;-86
2021/12/13 10:09:06;;;;;;;10.00;9.70;;;6.70;99.90;;;;;;5116956;28;20229;-87
2021/12/13 10:11:44;;;;;;;9.63;9.33;;;6.70;99.90;;;;;;5117886;28;20225;-86
2021/12/13 10:14:15;;;;;;;10.30;10.00;;;6.80;99.90;;;;;;5117307;28;20312;-86
2021/12/13 10:16:46;;;;;;;9.90;9.60;;;6.90;99.90;;;;;;5107101;28;20260;-86
2021/12/13 10:19:21;;;;;;;9.77;9.47;;;6.90;99.90;;;;;;5118054;28;20248;-86
2021/12/13 10:21:50;;;;;;;9.90;9.60;;;7.00;99.90;;;;;;5116197;28;20232;-86
2021/12/13 10:24:24;;;;;;;9.93;9.63;;;7.00;99.90;;;;;;5115434;28;20282;-86
2021/12/13 10:26:58;;;;;;;9.93;9.63;;;7.00;99.90;;;;;;5114604;28;20229;-85
2021/12/13 10:29:28;;;;;;;10.27;9.97;;;7.00;99.90;;;;;;5108430;28;20234;-85
2021/12/13 10:32:01;;;;;;;10.13;9.83;;;7.10;99.90;;;;;;5108003;28;20241;-86
2021/12/13 10:34:34;;;;;;;9.87;9.57;;;7.10;99.90;;;;;;5107306;28;20230;-85
2021/12/13 10:37:07;;;;;;;10.07;9.77;;;7.20;99.90;;;;;;5110795;28;20236;-83
2021/12/13 10:39:39;;;;;;;9.97;9.67;;;7.30;99.90;;;;;;5116071;28;20244;-84
2021/12/13 10:42:13;;;;;;;10.10;9.80;;;7.30;99.90;;;;;;5112689;28;20280;-84
2021/12/13 10:44:44;;;;;;;10.00;9.70;;;7.30;99.90;;;;;;5107781;28;20224;-84
2021/12/13 10:47:19;;;;;;;10.03;9.73;;;7.30;99.90;;;;;;5108146;28;20229;-85
2021/12/13 10:49:51;;;;;;;9.60;9.30;;;7.30;99.90;;;;;;5108130;28;20228;-85
2021/12/13 10:52:23;;;;;;;9.90;9.60;;;7.20;99.90;;;;;;5107412;28;20264;-85
2021/12/13 10:54:56;;;;;;;9.90;9.60;;;7.20;99.90;;;;;;5107676;28;20490;-85
2021/12/13 10:57:35;;;;;;;9.93;9.63;;;7.20;99.90;;;;;;5108802;28;20264;-85
2021/12/13 11:00:06;;;;;;;10.10;9.80;;;7.20;99.90;;;;;;5107654;28;20264;-85
2021/12/13 11:02:37;;;;;;;9.97;9.67;;;7.10;99.90;;;;;;5107479;28;20245;-87
2021/12/13 11:05:11;;;;;;;9.40;9.10;;;7.10;99.90;;;;;;5108094;28;20229;-86
2021/12/13 11:07:41;;;;;;;9.40;9.10;;;7.20;99.90;;;;;;5106966;28;20241;-85
2021/12/13 11:10:12;;;;;;;9.20;8.90;;;7.30;99.90;;;;;;5106265;28;20226;-84
2021/12/13 11:12:45;;;;;;;9.60;9.30;;;7.40;99.90;;;;;;5114125;27;20217;-85
2021/12/13 11:15:20;;;;;;;10.00;9.70;;;7.40;99.90;;;;;;5117474;27;20208;-86
2021/12/13 11:17:49;;;;;;;9.80;9.50;;;7.50;99.90;;;;;;5108877;28;20232;-84
2021/12/13 11:20:24;;;;;;;9.70;9.40;;;7.50;99.90;;;;;;5107448;28;20241;-84
2021/12/13 11:22:52;;;;;;;10.20;9.90;;;7.50;99.90;;;;;;5106895;28;20237;-85
2021/12/13 11:25:25;;;;;;;9.60;9.30;;;7.50;99.90;;;;;;5106353;28;20244;-85
2021/12/13 11:27:54;;;;;;;9.60;9.30;;;7.60;99.90;;;;;;5107596;28;20236;-85
2021/12/13 11:30:28;;;;;;;9.70;9.40;;;7.60;99.90;;;;;;5107465;28;20229;-84
2021/12/13 11:34:02;;;;;;;9.80;9.50;;;7.70;99.90;;;;;;5106332;28;20232;-84
2021/12/13 11:37:27;;;;;;;9.73;9.43;;;7.70;99.90;;;;;;5024346;28;20232;-85
2021/12/13 11:40:34;;;;;;;9.77;9.47;;;7.70;99.90;;;;;;5033523;28;20296;-84
2021/12/13 11:43:37;;;;;;;9.80;9.50;;;7.70;99.90;;;;;;5106374;28;20239;-84
2021/12/13 11:46:56;;;;;;;9.67;9.37;;;7.70;99.90;;;;;;5090959;28;20244;-84
2021/12/13 11:49:44;;;;;;;9.80;9.50;;;7.80;99.90;;;;;;5105126;28;20260;-85
2021/12/13 11:52:44;;;;;;;9.53;9.23;;;7.80;99.90;;;;;;5105183;28;20295;-84
2021/12/13 11:55:59;;;;;;;9.60;9.30;;;7.70;99.90;;;;;;5104454;28;20280;-85
2021/12/13 11:59:00;;;;;;;9.30;9.00;;;7.70;99.90;;;;;;5022198;28;20268;-85
2021/12/13 12:01:53;;;;;;;9.63;9.33;;;7.70;99.90;;;;;;5024418;28;20238;-84
2021/12/13 12:05:17;;;;;;;9.30;9.00;;;7.80;99.90;;;;;;5106156;28;20229;-85
2021/12/13 12:08:45;;;;;;;9.67;9.37;;;7.80;99.90;;;;;;5105874;28;20337;-85
2021/12/13 12:11:37;;;;;;;9.80;9.50;;;7.70;99.90;;;;;;5106120;28;20283;-85
2021/12/13 12:14:11;;;;;;;9.57;9.27;;;7.70;99.90;;;;;;5109098;28;20252;-85
2021/12/13 12:16:43;;;;;;;9.80;9.50;;;7.70;99.90;;;;;;5107102;28;20264;-85
2021/12/13 12:19:18;;;;;;;9.43;9.13;;;7.70;99.90;;;;;;5107225;28;20248;-85
2021/12/13 12:21:55;;;;;;;9.40;9.10;;;7.70;99.90;;;;;;5106964;28;20250;-86
2021/12/13 12:24:27;;;;;;;9.20;8.90;;;7.70;99.90;;;;;;5107654;28;20229;-86
2021/12/13 12:26:58;;;;;;;9.50;9.20;;;7.70;99.90;;;;;;5105869;28;20256;-86
2021/12/13 12:29:35;;;;;;;9.50;9.20;;;7.70;99.90;;;;;;5105923;28;20237;-85
2021/12/13 12:32:10;;;;;;;9.57;9.27;;;7.70;99.90;;;;;;5107025;28;20235;-84
2021/12/13 12:34:54;;;;;;;9.27;8.97;;;7.70;99.90;;;;;;5109433;28;20232;-84
2021/12/13 12:38:12;;;;;;;9.40;9.10;;;7.80;99.90;;;;;;5105775;28;20233;-84
2021/12/13 12:40:51;;;;;;;9.63;9.33;;;7.80;99.90;;;;;;5072334;28;20286;-85
2021/12/13 12:43:24;;;;;;;9.50;9.20;;;7.80;99.90;;;;;;5105451;28;20232;-85
2021/12/13 12:45:56;;;;;;;9.30;9.00;;;7.80;99.90;;;;;;5107403;28;20221;-85
2021/12/13 12:48:31;;;;;;;9.40;9.10;;;7.80;99.90;;;;;;5115677;28;20288;-85
2021/12/13 12:51:09;;;;;;;9.27;8.97;;;7.80;99.90;;;;;;5116598;27;20213;-87
2021/12/13 12:53:46;;;;;;;9.00;8.70;;;7.80;99.90;;;;;;5116702;27;20457;-87
2021/12/13 12:56:23;;;;;;;9.50;9.20;;;7.70;99.90;;;;;;5116683;28;20237;-84
2021/12/13 12:58:59;;;;;;;9.00;8.70;;;7.70;99.90;;;;;;5115057;27;20213;-84
2021/12/13 13:01:34;;;;;;;9.33;9.03;;;7.70;99.90;;;;;;5115557;28;20247;-86
2021/12/13 13:04:19;;;;;;;9.70;9.40;;;7.70;99.90;;;;;;5115940;28;20306;-84
2021/12/13 13:07:06;;;;;;;9.47;9.17;;;7.80;99.90;;;;;;5109490;28;20216;-85
2021/12/13 13:09:41;;;;;;;9.60;9.30;;;7.90;99.90;;;;;;5106756;28;20271;-86
2021/12/13 13:12:13;;;;;;;9.20;8.90;;;7.90;99.90;;;;;;5103294;28;20243;-86
2021/12/13 13:14:52;;;;;;;9.60;9.30;;;8.10;99.90;;;;;;5102665;28;20237;-85
2021/12/13 13:17:25;;;;;;;9.13;8.83;;;8.10;99.90;;;;;;5100835;28;20217;-86
2021/12/13 13:20:01;;;;;;;8.93;8.63;;;8.10;99.90;;;;;;5100754;28;20229;-86
2021/12/13 13:22:38;;;;;;;9.43;9.13;;;8.10;99.90;;;;;;5099012;28;20314;-86
2021/12/13 13:25:19;;;;;;;9.53;9.23;;;8.00;99.90;;;;;;5079707;28;20225;-86
2021/12/13 13:27:52;;;;;;;9.43;9.13;;;8.10;99.90;;;;;;5080954;28;20263;-86
2021/12/13 13:30:25;;;;;;;9.50;9.20;;;8.10;99.90;;;;;;5078848;28;20245;-85
2021/12/13 13:32:56;;;;;;;9.27;8.97;;;8.00;99.90;;;;;;5078863;28;20272;-86
2021/12/13 13:35:25;;;;;;;9.30;9.00;;;8.10;99.90;;;;;;5078334;28;20351;-86
2021/12/13 13:37:52;;;;;;;9.30;9.00;;;8.20;99.90;;;;;;5081181;28;20228;-83
2021/12/13 13:40:32;;;;;;;9.33;9.03;;;8.20;99.90;;;;;;5087390;28;20249;-84
2021/12/13 13:43:03;;;;;;;9.50;9.20;;;8.30;99.90;;;;;;5087822;28;20226;-83
2021/12/13 13:45:34;;;;;;;9.67;9.37;;;8.30;99.90;;;;;;5095523;28;20274;-84
2021/12/13 13:48:08;;;;;;;9.17;8.87;;;8.30;99.90;;;;;;5102772;28;20265;-86